Time;durP1;ratioP1;P1;durP2;ratioP2;P2;SDS_P1;SDS_P2;PMS_P1;PMS_P2;Temp;Humidity;BMP_temperature;BMP_pressure;BME280_temperature;BME280_humidity;BME280_pressure;Samples;Min_cycle;Max_cycle;Signal;HPM_P1;HPM_P2
2021/08/13 00:00:16;;;;;;;1.50;1.10;;;20.60;99.90;;;;;;5012543;28;20194;-84
2021/08/13 00:02:41;;;;;;;1.17;1.07;;;20.30;99.90;;;;;;5010199;28;20245;-83
2021/08/13 00:05:08;;;;;;;0.90;0.90;;;20.10;99.90;;;;;;5013559;28;20179;-83
2021/08/13 00:07:33;;;;;;;0.90;0.90;;;19.90;99.90;;;;;;5014537;28;20773;-84
2021/08/13 00:09:59;;;;;;;1.23;0.90;;;20.00;99.90;;;;;;5016404;28;20210;-83
2021/08/13 00:12:25;;;;;;;1.17;0.97;;;19.90;99.90;;;;;;5015325;28;20210;-83
2021/08/13 00:14:50;;;;;;;11.40;1.40;;;20.10;99.90;;;;;;5016708;28;20178;-83
2021/08/13 00:17:16;;;;;;;0.57;0.43;;;20.20;99.90;;;;;;5016290;28;20230;-83
2021/08/13 00:19:41;;;;;;;2.23;0.60;;;20.20;99.90;;;;;;5015215;28;20178;-83
2021/08/13 00:22:07;;;;;;;0.87;0.77;;;20.20;99.90;;;;;;5016225;28;20230;-84
2021/08/13 00:24:32;;;;;;;1.37;0.87;;;20.10;99.90;;;;;;5015864;28;20194;-84
2021/08/13 00:26:58;;;;;;;0.73;0.73;;;19.80;99.90;;;;;;5016333;28;20290;-83
2021/08/13 00:29:23;;;;;;;1.03;0.60;;;19.50;99.90;;;;;;5014848;28;20187;-83
2021/08/13 00:31:49;;;;;;;0.67;0.67;;;19.40;99.90;;;;;;5016958;28;20733;-84
2021/08/13 00:34:14;;;;;;;0.83;0.70;;;19.40;99.90;;;;;;5032908;28;20611;-84
2021/08/13 00:36:40;;;;;;;0.50;0.50;;;19.50;99.90;;;;;;5015279;28;20195;-83
2021/08/13 00:39:05;;;;;;;0.83;0.63;;;19.50;99.90;;;;;;5010897;28;20182;-83
2021/08/13 00:41:31;;;;;;;0.40;0.37;;;19.50;99.90;;;;;;5013039;28;20202;-84
2021/08/13 00:43:57;;;;;;;1.13;0.83;;;19.40;99.90;;;;;;5016384;28;20207;-83
2021/08/13 00:46:22;;;;;;;0.53;0.53;;;19.30;99.90;;;;;;5033043;28;20198;-83
2021/08/13 00:48:48;;;;;;;1.80;0.60;;;19.20;99.90;;;;;;5015121;28;20244;-83
2021/08/13 00:51:14;;;;;;;1.07;0.97;;;19.20;99.90;;;;;;5015236;28;20217;-84
2021/08/13 00:53:40;;;;;;;1.60;1.30;;;19.30;99.90;;;;;;5015361;28;20182;-83
2021/08/13 00:56:08;;;;;;;0.43;0.43;;;19.40;99.90;;;;;;5033175;28;20182;-83
2021/08/13 00:58:34;;;;;;;0.50;0.50;;;19.40;99.90;;;;;;5016083;28;20194;-81
2021/08/13 01:00:59;;;;;;;0.50;0.50;;;19.50;99.90;;;;;;5013893;28;20248;-82
2021/08/13 01:03:25;;;;;;;1.37;1.27;;;19.50;99.90;;;;;;5014726;28;20697;-83
2021/08/13 01:05:51;;;;;;;0.90;0.90;;;19.40;99.90;;;;;;5032640;28;20294;-83
2021/08/13 01:08:17;;;;;;;0.60;0.60;;;19.30;99.90;;;;;;5013985;28;20317;-84
2021/08/13 01:11:13;;;;;;;0.97;0.87;;;19.40;99.90;;;;;;5014976;28;20218;-83
2021/08/13 01:13:41;;;;;;;0.77;0.70;;;19.50;99.90;;;;;;5013759;28;20193;-81
2021/08/13 01:16:07;;;;;;;0.50;0.50;;;19.60;99.90;;;;;;5013505;28;20197;-83
2021/08/13 01:18:37;;;;;;;0.67;0.67;;;19.70;99.90;;;;;;5032454;28;20194;-83
2021/08/13 01:21:08;;;;;;;0.30;0.20;;;19.80;99.90;;;;;;5009324;28;20198;-82
2021/08/13 01:23:45;;;;;;;0.57;0.57;;;19.80;99.90;;;;;;5015602;28;20214;-84
2021/08/13 01:26:11;;;;;;;1.60;0.67;;;20.00;99.90;;;;;;5032424;28;20684;-82
2021/08/13 01:29:04;;;;;;;0.97;0.90;;;20.00;99.90;;;;;;5032619;28;20656;-84
2021/08/13 01:31:42;;;;;;;0.40;0.40;;;20.00;99.90;;;;;;5013586;28;20217;-83
2021/08/13 01:34:11;;;;;;;0.70;0.63;;;19.90;99.90;;;;;;5013777;28;20236;-83
2021/08/13 01:36:37;;;;;;;0.80;0.80;;;19.80;99.90;;;;;;5033293;28;20182;-84
2021/08/13 01:39:04;;;;;;;0.70;0.63;;;19.90;99.90;;;;;;5030483;28;20278;-83
2021/08/13 01:41:33;;;;;;;1.23;0.70;;;20.00;99.90;;;;;;5031276;28;20253;-84
2021/08/13 01:44:02;;;;;;;1.33;1.17;;;20.10;99.90;;;;;;5014060;28;20210;-83
2021/08/13 01:46:29;;;;;;;2.00;0.83;;;20.20;99.90;;;;;;5033102;28;20186;-83
2021/08/13 01:48:57;;;;;;;1.47;1.17;;;20.20;99.90;;;;;;5013832;28;20277;-84
2021/08/13 01:51:22;;;;;;;0.90;0.90;;;20.20;99.90;;;;;;5030145;28;20214;-83
2021/08/13 01:53:49;;;;;;;0.73;0.73;;;20.20;99.90;;;;;;5014462;28;20182;-83
2021/08/13 01:56:17;;;;;;;1.47;1.30;;;20.20;99.90;;;;;;5013323;28;20568;-83
2021/08/13 01:58:44;;;;;;;0.73;0.60;;;20.20;99.90;;;;;;5030726;28;20186;-84
2021/08/13 02:01:10;;;;;;;0.50;0.47;;;20.20;99.90;;;;;;5030950;28;20232;-83
2021/08/13 02:03:39;;;;;;;0.80;0.80;;;20.10;99.90;;;;;;5013676;28;20705;-84
2021/08/13 02:06:05;;;;;;;4.17;0.80;;;19.90;99.90;;;;;;5012867;28;20183;-84
2021/08/13 02:08:32;;;;;;;1.03;0.67;;;19.80;99.90;;;;;;5011246;28;20209;-84
2021/08/13 02:10:58;;;;;;;0.50;0.50;;;19.80;99.90;;;;;;5010753;28;20281;-84
2021/08/13 02:13:24;;;;;;;1.27;0.73;;;19.90;99.90;;;;;;5029292;28;20277;-83
2021/08/13 02:16:00;;;;;;;0.67;0.67;;;19.90;99.90;;;;;;5013738;28;20197;-84
2021/08/13 02:18:27;;;;;;;0.63;0.63;;;19.90;99.90;;;;;;5013767;28;20244;-84
2021/08/13 02:20:56;;;;;;;1.17;1.00;;;20.00;99.90;;;;;;5014727;28;20200;-84
2021/08/13 02:23:22;;;;;;;0.70;0.70;;;19.90;99.90;;;;;;5014158;28;20627;-82
2021/08/13 02:25:48;;;;;;;1.23;1.13;;;19.70;99.90;;;;;;5030956;28;20183;-84
2021/08/13 02:28:14;;;;;;;1.53;0.50;;;19.50;99.90;;;;;;5014301;28;20186;-84
2021/08/13 02:30:40;;;;;;;0.50;0.50;;;19.50;99.90;;;;;;5012759;28;20189;-83
2021/08/13 02:33:06;;;;;;;0.80;0.80;;;19.50;99.90;;;;;;5031180;28;20202;-84
2021/08/13 02:35:32;;;;;;;0.77;0.77;;;19.50;99.90;;;;;;5030383;28;20225;-83
2021/08/13 02:38:14;;;;;;;0.80;0.70;;;19.70;99.90;;;;;;5014270;28;20203;-83
2021/08/13 02:40:56;;;;;;;0.50;0.50;;;19.80;99.90;;;;;;5006834;28;20202;-83
2021/08/13 02:43:24;;;;;;;0.83;0.60;;;19.90;99.90;;;;;;5028875;28;20224;-84
2021/08/13 02:45:53;;;;;;;1.03;0.73;;;19.90;99.90;;;;;;5022806;28;20308;-84
2021/08/13 02:48:19;;;;;;;1.30;0.50;;;19.90;99.90;;;;;;5013786;28;20193;-83
2021/08/13 02:50:47;;;;;;;1.00;0.90;;;19.90;99.90;;;;;;5014373;28;20576;-83
2021/08/13 02:53:20;;;;;;;0.80;0.80;;;20.00;99.90;;;;;;5031578;28;20210;-83
2021/08/13 02:55:53;;;;;;;0.87;0.87;;;20.10;99.90;;;;;;5006041;28;20196;-82
2021/08/13 02:58:23;;;;;;;0.57;0.57;;;20.10;99.90;;;;;;5013282;28;20617;-83
2021/08/13 03:00:51;;;;;;;1.07;0.50;;;20.10;99.90;;;;;;5014037;28;20305;-84
2021/08/13 03:03:18;;;;;;;1.60;0.83;;;20.10;99.90;;;;;;5031760;28;20198;-84
2021/08/13 03:05:50;;;;;;;0.50;0.47;;;20.10;99.90;;;;;;5014325;28;20182;-83
2021/08/13 03:08:20;;;;;;;0.70;0.70;;;20.00;99.90;;;;;;5010743;28;20260;-83
2021/08/13 03:10:46;;;;;;;1.00;0.93;;;19.60;99.90;;;;;;5031462;28;20722;-83
2021/08/13 03:13:15;;;;;;;0.80;0.80;;;19.30;99.90;;;;;;5013714;28;20210;-84
2021/08/13 03:15:42;;;;;;;0.77;0.77;;;19.20;99.90;;;;;;5013450;28;20182;-84
2021/08/13 03:18:08;;;;;;;0.90;0.70;;;19.20;99.90;;;;;;5031290;28;20276;-83
2021/08/13 03:20:34;;;;;;;1.03;0.83;;;19.00;99.90;;;;;;5013641;28;20200;-83
2021/08/13 03:23:01;;;;;;;0.50;0.50;;;19.10;99.90;;;;;;5031202;28;20206;-83
2021/08/13 03:25:26;;;;;;;0.47;0.47;;;19.20;99.90;;;;;;5013930;28;20659;-84
2021/08/13 03:27:52;;;;;;;1.03;0.97;;;19.30;99.90;;;;;;5013695;28;20269;-85
2021/08/13 03:30:18;;;;;;;1.90;0.90;;;19.40;99.90;;;;;;5013685;28;20276;-82
2021/08/13 03:32:47;;;;;;;0.93;0.93;;;19.50;99.90;;;;;;5004515;28;20210;-82
2021/08/13 03:35:13;;;;;;;1.33;1.20;;;19.60;99.90;;;;;;5008078;28;20222;-83
2021/08/13 03:37:39;;;;;;;1.13;1.10;;;19.60;99.90;;;;;;5004796;28;20202;-83
2021/08/13 03:40:06;;;;;;;1.07;0.90;;;19.50;99.90;;;;;;5007811;28;20190;-83
2021/08/13 03:42:32;;;;;;;1.27;1.17;;;19.40;99.90;;;;;;5013156;28;20214;-83
2021/08/13 03:44:57;;;;;;;2.70;1.70;;;19.20;99.90;;;;;;5015049;28;20797;-83
2021/08/13 03:47:23;;;;;;;1.63;1.23;;;19.10;99.90;;;;;;5015561;28;20183;-83
2021/08/13 03:49:49;;;;;;;1.53;1.00;;;19.00;99.90;;;;;;5015732;28;20225;-83
2021/08/13 03:52:14;;;;;;;1.60;1.43;;;18.90;99.90;;;;;;5009837;28;20207;-81
2021/08/13 03:54:40;;;;;;;2.67;2.37;;;18.90;99.90;;;;;;5016142;28;20187;-83
2021/08/13 03:57:05;;;;;;;0.83;0.83;;;18.90;99.90;;;;;;5031633;28;20370;-83
2021/08/13 03:59:31;;;;;;;1.40;1.20;;;18.80;99.90;;;;;;5015900;28;20190;-83
2021/08/13 04:01:56;;;;;;;0.77;0.77;;;18.80;99.90;;;;;;5015485;28;20210;-81
2021/08/13 04:04:22;;;;;;;0.53;0.50;;;18.80;99.90;;;;;;5034969;28;20210;-82
2021/08/13 04:06:47;;;;;;;2.33;2.13;;;18.80;99.90;;;;;;5034066;28;20212;-82
2021/08/13 04:09:13;;;;;;;1.63;0.97;;;18.80;99.90;;;;;;5034611;28;20233;-82
2021/08/13 04:11:38;;;;;;;0.80;0.73;;;18.80;99.90;;;;;;5033901;28;20236;-83
2021/08/13 04:14:05;;;;;;;1.47;1.03;;;18.80;99.90;;;;;;5034295;28;20195;-83
2021/08/13 04:16:30;;;;;;;1.37;1.27;;;18.80;99.90;;;;;;5016732;28;20190;-83
2021/08/13 04:18:56;;;;;;;2.10;0.93;;;18.90;99.90;;;;;;5033656;28;20197;-83
2021/08/13 04:21:22;;;;;;;0.70;0.60;;;18.90;99.90;;;;;;5014144;28;20210;-83
2021/08/13 04:23:47;;;;;;;2.43;1.00;;;18.90;99.90;;;;;;5016081;28;20218;-82
2021/08/13 04:26:13;;;;;;;3.00;1.00;;;19.00;99.90;;;;;;5016187;28;20200;-82
2021/08/13 04:28:39;;;;;;;0.80;0.80;;;19.10;99.90;;;;;;5033912;28;20194;-83
2021/08/13 04:31:04;;;;;;;2.27;0.33;;;19.20;99.90;;;;;;5015750;28;20780;-86
2021/08/13 04:33:30;;;;;;;0.60;0.60;;;19.20;99.90;;;;;;5034429;28;20190;-86
2021/08/13 04:35:55;;;;;;;0.87;0.87;;;19.20;99.90;;;;;;5015972;28;20235;-85
2021/08/13 04:38:21;;;;;;;0.80;0.80;;;19.30;99.90;;;;;;5016106;28;20192;-85
2021/08/13 04:40:47;;;;;;;0.87;0.70;;;19.40;99.90;;;;;;5015938;28;20202;-83
2021/08/13 04:43:12;;;;;;;2.53;0.53;;;19.40;99.90;;;;;;5014783;28;20228;-83
2021/08/13 04:45:38;;;;;;;1.50;1.00;;;19.50;99.90;;;;;;5032512;28;20182;-83
2021/08/13 04:48:03;;;;;;;3.53;0.63;;;19.60;99.90;;;;;;5038389;28;20277;-83
2021/08/13 04:50:29;;;;;;;0.67;0.67;;;19.60;99.90;;;;;;5014313;28;20265;-86
2021/08/13 04:52:54;;;;;;;0.87;0.80;;;19.40;99.90;;;;;;5011935;28;20901;-87
2021/08/13 04:55:22;;;;;;;0.60;0.60;;;19.10;99.90;;;;;;5012583;28;20670;-85
2021/08/13 04:57:48;;;;;;;2.00;1.30;;;19.10;99.90;;;;;;5031901;28;20191;-87
2021/08/13 05:00:14;;;;;;;1.73;1.63;;;18.90;99.90;;;;;;5014456;28;20190;-88
2021/08/13 05:02:40;;;;;;;1.63;0.93;;;18.90;99.90;;;;;;5014610;28;20214;-85
2021/08/13 05:05:06;;;;;;;1.73;0.67;;;18.80;99.90;;;;;;5026763;28;20182;-83
2021/08/13 05:07:33;;;;;;;0.60;0.60;;;19.00;99.90;;;;;;5028925;28;20196;-83
2021/08/13 05:09:59;;;;;;;2.63;1.07;;;19.10;99.90;;;;;;5007125;28;20655;-82
2021/08/13 05:12:25;;;;;;;2.63;1.47;;;19.30;99.90;;;;;;5012527;28;20255;-82
2021/08/13 05:14:50;;;;;;;2.17;1.27;;;19.40;99.90;;;;;;5015313;28;20574;-83
2021/08/13 05:17:16;;;;;;;1.43;1.20;;;19.50;99.90;;;;;;5014604;28;20186;-84
2021/08/13 05:19:41;;;;;;;0.60;0.60;;;19.60;99.90;;;;;;5031855;28;20221;-84
2021/08/13 05:22:10;;;;;;;0.43;0.43;;;19.90;99.90;;;;;;5014083;28;20221;-83
2021/08/13 05:24:36;;;;;;;0.33;0.33;;;20.20;99.90;;;;;;5011019;28;20206;-84
2021/08/13 05:27:02;;;;;;;0.63;0.63;;;20.40;99.90;;;;;;5028464;28;20232;-82
2021/08/13 05:29:28;;;;;;;1.03;0.50;;;20.60;99.90;;;;;;5025287;28;20306;-84
2021/08/13 05:31:53;;;;;;;0.73;0.73;;;20.50;99.90;;;;;;5029830;28;20293;-84
2021/08/13 05:34:19;;;;;;;0.73;0.73;;;20.50;99.90;;;;;;5026550;28;20251;-82
2021/08/13 05:36:44;;;;;;;0.63;0.63;;;20.50;99.90;;;;;;5009988;28;20186;-83
2021/08/13 05:39:10;;;;;;;0.73;0.73;;;20.80;99.90;;;;;;5016138;28;20252;-82
2021/08/13 05:41:35;;;;;;;1.70;0.87;;;20.90;99.90;;;;;;5009938;28;20585;-84
2021/08/13 05:44:01;;;;;;;1.37;1.20;;;21.30;99.90;;;;;;5025927;28;20217;-84
2021/08/13 05:46:27;;;;;;;0.80;0.60;;;21.40;99.90;;;;;;5032264;28;20265;-84
2021/08/13 05:48:54;;;;;;;0.90;0.47;;;21.40;99.90;;;;;;5025050;28;20206;-84
2021/08/13 05:51:19;;;;;;;1.10;1.00;;;21.80;99.90;;;;;;5015056;28;20202;-84
2021/08/13 05:53:45;;;;;;;1.07;0.97;;;22.00;99.90;;;;;;5031125;28;20200;-84
2021/08/13 05:56:10;;;;;;;0.80;0.80;;;21.60;99.90;;;;;;5031022;28;20217;-84
2021/08/13 05:58:36;;;;;;;0.73;0.60;;;21.80;99.90;;;;;;5009128;28;20689;-83
2021/08/13 06:01:02;;;;;;;1.10;1.10;;;22.00;99.90;;;;;;5013469;28;20279;-84
2021/08/13 06:03:28;;;;;;;0.77;0.50;;;22.30;99.90;;;;;;5028709;28;20216;-83
2021/08/13 06:05:53;;;;;;;0.83;0.83;;;22.40;99.90;;;;;;5013510;28;20182;-84
2021/08/13 06:08:19;;;;;;;1.13;0.63;;;22.60;99.90;;;;;;5029599;28;20529;-84
2021/08/13 06:10:45;;;;;;;0.83;0.53;;;22.70;99.90;;;;;;5031757;28;20301;-84
2021/08/13 06:13:10;;;;;;;0.63;0.63;;;22.90;99.90;;;;;;5031136;28;20209;-83
2021/08/13 06:15:36;;;;;;;0.77;0.43;;;23.00;99.90;;;;;;5013916;28;20631;-84
2021/08/13 06:18:02;;;;;;;1.07;1.03;;;23.10;99.90;;;;;;5030712;28;20190;-84
2021/08/13 06:20:27;;;;;;;0.67;0.67;;;23.30;99.90;;;;;;5014859;28;20265;-84
2021/08/13 06:22:53;;;;;;;0.93;0.70;;;23.40;99.90;;;;;;4976651;28;1069973;-84
2021/08/13 06:25:19;;;;;;;0.93;0.87;;;23.40;99.90;;;;;;5026135;28;20190;-82
2021/08/13 06:27:45;;;;;;;4.07;1.03;;;23.50;99.90;;;;;;5028367;28;20619;-83
2021/08/13 06:30:16;;;;;;;1.10;1.03;;;23.50;99.90;;;;;;5014094;28;20654;-84
2021/08/13 06:32:42;;;;;;;0.70;0.70;;;23.60;99.90;;;;;;5031622;28;20203;-84
2021/08/13 06:35:08;;;;;;;0.87;0.80;;;23.80;99.90;;;;;;5013435;28;20182;-84
2021/08/13 06:37:43;;;;;;;2.30;1.20;;;23.70;99.90;;;;;;5014100;28;20195;-84
2021/08/13 06:40:09;;;;;;;1.10;1.10;;;23.80;99.90;;;;;;5013557;28;20609;-84
2021/08/13 06:42:34;;;;;;;1.07;0.97;;;24.00;99.90;;;;;;5012976;28;20206;-84
2021/08/13 06:45:00;;;;;;;0.83;0.83;;;24.10;99.90;;;;;;5031292;28;20201;-84
2021/08/13 06:47:26;;;;;;;0.83;0.83;;;24.30;99.90;;;;;;5031429;28;20946;-84
2021/08/13 06:49:52;;;;;;;1.53;1.43;;;24.30;99.90;;;;;;5013584;28;20189;-83
2021/08/13 06:52:17;;;;;;;1.23;1.10;;;24.50;99.90;;;;;;5029902;28;20202;-83
2021/08/13 06:54:43;;;;;;;1.57;1.47;;;24.70;99.90;;;;;;5009133;28;20599;-84
2021/08/13 06:57:08;;;;;;;1.97;0.77;;;24.70;99.90;;;;;;5031051;28;20186;-84
2021/08/13 06:59:34;;;;;;;0.60;0.53;;;24.80;99.90;;;;;;5013277;28;20642;-84
2021/08/13 07:02:00;;;;;;;0.90;0.83;;;25.10;99.90;;;;;;5013554;28;20605;-83
2021/08/13 07:04:25;;;;;;;1.83;1.00;;;25.30;99.90;;;;;;5027739;28;20585;-84
2021/08/13 07:06:51;;;;;;;1.33;0.70;;;25.50;99.90;;;;;;5031804;28;20190;-83
2021/08/13 07:09:16;;;;;;;0.80;0.70;;;25.70;99.90;;;;;;5013489;28;20273;-83
2021/08/13 07:11:42;;;;;;;1.00;0.90;;;25.80;99.90;;;;;;5030960;28;20230;-83
2021/08/13 07:14:07;;;;;;;0.60;0.60;;;26.00;99.90;;;;;;5013375;28;20277;-83
2021/08/13 07:16:33;;;;;;;0.40;0.40;;;26.10;99.90;;;;;;5014157;28;20276;-83
2021/08/13 07:18:58;;;;;;;1.20;1.10;;;26.20;99.90;;;;;;5013493;28;20650;-83
2021/08/13 07:21:24;;;;;;;1.00;1.00;;;26.10;99.90;;;;;;5012103;28;20313;-82
2021/08/13 07:23:49;;;;;;;1.00;1.00;;;26.00;99.90;;;;;;5013474;28;20590;-83
2021/08/13 07:26:15;;;;;;;0.70;0.70;;;26.00;99.90;;;;;;5030840;28;20190;-83
2021/08/13 07:28:40;;;;;;;0.97;0.73;;;26.10;99.90;;;;;;5031308;28;20217;-83
2021/08/13 07:31:06;;;;;;;0.70;0.70;;;26.20;99.90;;;;;;5030423;28;20604;-84
2021/08/13 07:33:31;;;;;;;1.03;0.60;;;26.30;99.90;;;;;;5031501;28;20214;-83
2021/08/13 07:35:57;;;;;;;3.20;1.00;;;26.50;99.90;;;;;;5008022;28;20190;-83
2021/08/13 07:38:23;;;;;;;1.93;0.97;;;26.70;99.90;;;;;;5013747;28;20190;-83
2021/08/13 07:40:48;;;;;;;0.80;0.80;;;26.80;99.90;;;;;;5022436;28;20574;-84
2021/08/13 07:43:15;;;;;;;1.93;1.20;;;26.90;99.90;;;;;;5019285;28;20816;-84
2021/08/13 07:45:41;;;;;;;1.37;1.27;;;26.90;99.90;;;;;;5027976;28;20179;-82
2021/08/13 07:48:07;;;;;;;0.63;0.63;;;26.90;99.90;;;;;;5027218;28;20204;-84
2021/08/13 07:50:32;;;;;;;3.67;1.00;;;27.00;99.90;;;;;;5013504;28;20214;-83
2021/08/13 07:52:58;;;;;;;0.97;0.90;;;26.80;99.90;;;;;;5030148;28;20210;-84
2021/08/13 07:55:23;;;;;;;1.40;1.23;;;26.80;99.90;;;;;;5030758;28;20689;-83
2021/08/13 07:57:49;;;;;;;0.70;0.70;;;26.80;99.90;;;;;;5013016;28;20228;-82
2021/08/13 08:00:15;;;;;;;1.03;0.90;;;26.80;99.90;;;;;;5012109;28;20313;-82
2021/08/13 08:02:41;;;;;;;1.13;1.03;;;26.90;99.90;;;;;;5013244;28;20690;-83
2021/08/13 08:05:07;;;;;;;1.00;1.00;;;27.00;99.90;;;;;;5029275;28;20182;-84
2021/08/13 08:07:34;;;;;;;1.00;0.80;;;27.20;99.90;;;;;;5012470;28;20654;-84
2021/08/13 08:10:00;;;;;;;1.80;1.07;;;27.00;99.90;;;;;;5013028;28;20187;-83
2021/08/13 08:12:25;;;;;;;0.80;0.80;;;27.00;99.90;;;;;;5011536;28;20548;-83
2021/08/13 08:14:51;;;;;;;1.40;1.30;;;27.00;99.90;;;;;;5011219;28;20557;-84
2021/08/13 08:17:16;;;;;;;1.43;1.07;;;27.00;99.90;;;;;;5031259;28;20186;-84
2021/08/13 08:19:42;;;;;;;1.63;1.33;;;27.20;99.90;;;;;;5009758;28;20217;-84
2021/08/13 08:22:07;;;;;;;1.97;1.80;;;27.20;99.90;;;;;;5029410;28;20217;-85
2021/08/13 08:24:33;;;;;;;0.50;0.50;;;27.50;99.90;;;;;;5031562;28;20222;-85
2021/08/13 08:26:59;;;;;;;0.80;0.80;;;27.70;99.90;;;;;;5014835;28;20568;-83
2021/08/13 08:29:24;;;;;;;1.83;1.13;;;27.90;99.90;;;;;;5030922;28;20186;-83
2021/08/13 08:31:50;;;;;;;0.83;0.80;;;27.90;99.90;;;;;;5027568;28;20273;-82
2021/08/13 08:34:16;;;;;;;3.17;1.50;;;27.50;99.90;;;;;;5015289;28;20659;-84
2021/08/13 08:36:41;;;;;;;1.57;1.43;;;27.50;99.90;;;;;;5016354;28;20217;-85
2021/08/13 08:39:07;;;;;;;0.77;0.77;;;27.00;99.90;;;;;;5033826;28;20186;-84
2021/08/13 08:41:33;;;;;;;1.57;1.30;;;27.50;99.90;;;;;;5025987;28;20222;-84
2021/08/13 08:43:58;;;;;;;1.47;1.00;;;27.80;99.90;;;;;;5016058;28;20206;-84
2021/08/13 08:46:24;;;;;;;1.37;0.70;;;28.00;99.90;;;;;;5015672;28;20702;-83
2021/08/13 08:48:52;;;;;;;1.20;1.10;;;28.30;99.90;;;;;;5015670;28;20568;-84
2021/08/13 08:51:18;;;;;;;1.20;1.10;;;28.50;99.90;;;;;;5014285;28;20218;-84
2021/08/13 08:53:53;;;;;;;0.90;0.90;;;28.40;99.90;;;;;;5028779;28;20269;-84
2021/08/13 08:56:22;;;;;;;2.07;1.77;;;28.50;99.90;;;;;;5015514;28;20194;-84
2021/08/13 08:58:48;;;;;;;0.90;0.90;;;28.50;99.90;;;;;;5033526;28;20186;-84
2021/08/13 09:01:15;;;;;;;2.07;1.33;;;28.60;99.90;;;;;;5033083;28;20191;-84
2021/08/13 09:03:42;;;;;;;0.88;0.73;;;28.90;99.90;;;;;;5016172;28;20221;-83
2021/08/13 09:06:08;;;;;;;3.00;1.45;;;28.90;99.90;;;;;;5015699;28;20191;-84
2021/08/13 09:08:34;;;;;;;1.88;1.30;;;29.00;99.90;;;;;;5019440;28;20185;-84
2021/08/13 09:11:00;;;;;;;3.03;1.10;;;29.00;99.90;;;;;;5019684;28;20559;-84
2021/08/13 09:13:25;;;;;;;1.00;0.93;;;29.10;99.90;;;;;;5015654;28;20846;-84
2021/08/13 09:15:52;;;;;;;4.13;0.98;;;29.30;99.90;;;;;;5015617;28;20189;-84
2021/08/13 09:18:26;;;;;;;1.02;0.90;;;29.30;99.90;;;;;;5032702;28;20178;-84
2021/08/13 09:21:01;;;;;;;0.60;0.60;;;29.40;99.90;;;;;;5014885;28;20193;-84
2021/08/13 09:23:35;;;;;;;1.70;1.38;;;29.40;99.90;;;;;;5033412;28;20332;-84
2021/08/13 09:26:09;;;;;;;1.02;0.82;;;29.60;99.90;;;;;;5033253;28;20235;-84
2021/08/13 09:28:48;;;;;;;1.27;1.08;;;29.60;99.90;;;;;;5033118;28;20187;-84
2021/08/13 09:31:20;;;;;;;0.80;0.80;;;29.60;99.90;;;;;;5014359;28;20190;-84
2021/08/13 09:33:52;;;;;;;1.67;1.08;;;29.70;99.90;;;;;;5017365;28;20233;-84
2021/08/13 09:36:20;;;;;;;1.30;1.20;;;29.80;99.90;;;;;;5013857;28;20186;-84
2021/08/13 09:38:49;;;;;;;3.67;1.23;;;29.80;99.90;;;;;;5031468;28;20182;-84
2021/08/13 09:41:18;;;;;;;1.85;1.38;;;30.00;99.90;;;;;;5019255;28;20256;-84
2021/08/13 09:43:56;;;;;;;2.03;1.33;;;30.10;99.90;;;;;;5018946;28;20583;-83
2021/08/13 09:46:21;;;;;;;1.20;1.00;;;30.10;99.90;;;;;;5032602;28;20185;-84
2021/08/13 09:48:47;;;;;;;0.70;0.68;;;30.30;99.90;;;;;;5014866;28;20187;-84
2021/08/13 09:51:32;;;;;;;2.22;1.13;;;30.40;99.90;;;;;;5014655;28;20686;-84
2021/08/13 09:54:03;;;;;;;1.55;1.38;;;30.60;99.90;;;;;;5013910;28;20189;-84
2021/08/13 09:56:31;;;;;;;1.85;1.23;;;30.70;99.90;;;;;;5014629;28;20556;-84
2021/08/13 09:59:17;;;;;;;2.58;1.67;;;30.40;99.90;;;;;;5014659;28;20716;-84
2021/08/13 10:01:50;;;;;;;1.02;0.95;;;30.40;99.90;;;;;;5015144;28;20206;-84
2021/08/13 10:04:17;;;;;;;2.95;1.20;;;30.30;99.90;;;;;;5008803;28;20213;-84
2021/08/13 10:06:44;;;;;;;4.35;1.75;;;30.40;99.90;;;;;;5011757;28;20189;-83
2021/08/13 10:09:24;;;;;;;1.60;1.27;;;30.40;99.90;;;;;;5030498;28;20249;-84
2021/08/13 10:11:59;;;;;;;1.17;1.08;;;30.30;99.90;;;;;;5031339;28;20209;-84
2021/08/13 10:14:33;;;;;;;1.90;0.95;;;30.30;99.90;;;;;;5026348;28;20181;-83
2021/08/13 10:17:08;;;;;;;2.72;2.25;;;30.40;99.90;;;;;;5025283;28;20182;-83
2021/08/13 10:19:34;;;;;;;1.27;1.15;;;30.60;99.90;;;;;;5028800;28;20197;-84
2021/08/13 10:22:00;;;;;;;1.13;1.13;;;30.70;99.90;;;;;;5030981;28;20221;-85
2021/08/13 10:24:28;;;;;;;2.13;1.92;;;30.70;99.90;;;;;;5028132;28;20217;-83
2021/08/13 10:26:55;;;;;;;1.15;1.02;;;30.60;99.90;;;;;;5008246;28;20285;-83
2021/08/13 10:29:21;;;;;;;1.50;1.27;;;30.60;99.90;;;;;;5012536;28;20178;-84
2021/08/13 10:31:47;;;;;;;1.10;1.00;;;30.60;99.90;;;;;;5012773;28;20202;-83
2021/08/13 10:34:12;;;;;;;2.28;1.23;;;30.30;99.90;;;;;;5018457;28;21528;-84
2021/08/13 10:36:40;;;;;;;1.42;1.33;;;30.60;99.90;;;;;;5012777;28;20196;-84
2021/08/13 10:39:07;;;;;;;1.80;1.40;;;30.60;99.90;;;;;;5013174;28;20193;-84
2021/08/13 10:41:38;;;;;;;2.42;1.15;;;30.80;99.90;;;;;;5012791;28;20209;-83
2021/08/13 10:44:09;;;;;;;0.93;0.93;;;31.00;99.90;;;;;;5021819;28;20214;-84
2021/08/13 10:46:38;;;;;;;2.10;1.30;;;31.20;99.90;;;;;;5012185;28;20186;-84
2021/08/13 10:49:08;;;;;;;0.93;0.93;;;31.40;99.90;;;;;;5012809;28;20182;-84
2021/08/13 10:51:34;;;;;;;3.25;1.73;;;31.40;99.90;;;;;;5009554;28;20702;-84
2021/08/13 10:54:07;;;;;;;2.15;1.42;;;31.70;99.90;;;;;;5011789;28;20183;-84
2021/08/13 10:56:38;;;;;;;1.90;1.35;;;31.70;99.90;;;;;;5012084;28;20182;-83
2021/08/13 10:59:03;;;;;;;0.73;0.73;;;31.70;99.90;;;;;;5012572;28;20197;-83
2021/08/13 11:01:29;;;;;;;1.35;1.25;;;31.90;99.90;;;;;;5029807;28;20222;-83
2021/08/13 11:03:54;;;;;;;2.10;1.85;;;31.80;99.90;;;;;;5027512;28;20209;-85
2021/08/13 11:06:41;;;;;;;1.88;1.38;;;31.70;99.90;;;;;;5012203;28;20178;-84
2021/08/13 11:09:08;;;;;;;1.67;1.20;;;31.50;99.90;;;;;;5029969;28;20174;-86
2021/08/13 11:11:52;;;;;;;1.75;1.33;;;31.70;99.90;;;;;;5012196;28;20213;-85
2021/08/13 11:14:29;;;;;;;1.60;1.50;;;31.70;99.90;;;;;;5030255;28;20194;-85
2021/08/13 11:16:56;;;;;;;1.90;1.27;;;31.90;99.90;;;;;;5029322;28;20190;-85
2021/08/13 11:19:23;;;;;;;1.58;1.33;;;32.20;99.90;;;;;;5011925;28;20190;-82
2021/08/13 11:21:51;;;;;;;1.15;1.15;;;32.20;99.90;;;;;;5011160;28;20275;-84
2021/08/13 11:24:22;;;;;;;1.08;1.08;;;32.30;99.90;;;;;;5027511;28;20305;-83
2021/08/13 11:26:51;;;;;;;0.93;0.93;;;32.60;99.90;;;;;;5024868;28;20197;-82
2021/08/13 11:32:08;;;;;;;1.42;1.00;;;32.50;99.90;;;;;;5029439;28;20225;-84
2021/08/13 11:35:03;;;;;;;2.55;1.33;;;32.60;99.90;;;;;;5011641;28;20190;-86
2021/08/13 11:37:37;;;;;;;3.17;1.45;;;32.60;99.90;;;;;;5029955;28;20215;-86
2021/08/13 11:40:12;;;;;;;2.25;1.20;;;32.60;99.90;;;;;;5012442;28;20662;-86
2021/08/13 11:42:45;;;;;;;1.17;1.15;;;32.80;99.90;;;;;;5009814;28;20224;-86
2021/08/13 11:45:11;;;;;;;1.10;1.10;;;32.90;99.90;;;;;;5029324;28;20220;-85
2021/08/13 11:47:37;;;;;;;1.42;1.30;;;32.80;99.90;;;;;;5027922;28;20213;-86
2021/08/13 11:50:05;;;;;;;7.53;1.52;;;32.80;99.90;;;;;;5029072;28;20197;-85
2021/08/13 11:52:32;;;;;;;1.20;1.20;;;32.90;99.90;;;;;;5028533;28;20198;-86
2021/08/13 11:55:21;;;;;;;1.13;1.13;;;33.00;99.90;;;;;;5028007;28;20523;-87
2021/08/13 11:57:47;;;;;;;1.58;1.10;;;32.60;99.90;;;;;;5021951;28;20178;-86
2021/08/13 12:00:21;;;;;;;1.20;1.20;;;32.40;99.90;;;;;;5033468;28;20961;-87
2021/08/13 12:02:47;;;;;;;1.20;1.08;;;32.60;99.90;;;;;;5014909;28;20198;-86
2021/08/13 12:05:13;;;;;;;1.60;1.50;;;32.70;99.90;;;;;;5033892;28;20196;-86
2021/08/13 12:07:40;;;;;;;1.85;1.23;;;32.90;99.90;;;;;;5014976;28;20182;-86
2021/08/13 12:10:14;;;;;;;1.40;1.30;;;33.00;99.90;;;;;;5013544;28;20187;-86
2021/08/13 12:12:41;;;;;;;1.45;1.35;;;33.20;99.90;;;;;;5013705;28;20288;-86
2021/08/13 12:15:08;;;;;;;1.38;0.98;;;33.60;99.90;;;;;;5015902;28;20655;-86
2021/08/13 12:17:34;;;;;;;3.72;1.48;;;33.70;99.90;;;;;;5032596;28;20243;-87
2021/08/13 12:20:02;;;;;;;2.17;1.83;;;33.80;99.90;;;;;;5015799;28;20261;-86
2021/08/13 12:22:32;;;;;;;1.08;0.93;;;33.80;99.90;;;;;;5015845;28;20218;-86
2021/08/13 12:24:59;;;;;;;1.95;1.30;;;34.00;99.90;;;;;;5014905;28;20210;-86
2021/08/13 12:27:30;;;;;;;2.17;0.90;;;33.80;99.90;;;;;;5013871;28;20197;-87
2021/08/13 12:29:56;;;;;;;1.60;1.50;;;33.70;99.90;;;;;;5045443;28;20256;-86
2021/08/13 12:32:37;;;;;;;3.65;1.58;;;33.40;99.90;;;;;;5033482;28;20289;-86
2021/08/13 12:35:04;;;;;;;2.15;1.30;;;33.60;99.90;;;;;;5015393;28;20221;-86
2021/08/13 12:37:30;;;;;;;1.13;0.95;;;33.40;99.90;;;;;;5013970;28;20265;-87
2021/08/13 12:39:59;;;;;;;0.93;0.88;;;33.20;99.90;;;;;;5009300;28;20657;-84
2021/08/13 12:42:26;;;;;;;2.35;1.25;;;32.80;99.90;;;;;;5015659;28;20210;-86
2021/08/13 12:44:52;;;;;;;1.40;1.30;;;32.70;99.90;;;;;;5015237;28;20206;-87
2021/08/13 12:47:18;;;;;;;1.17;0.88;;;32.40;99.90;;;;;;5036946;28;20830;-86
2021/08/13 12:49:44;;;;;;;1.30;1.20;;;32.40;99.90;;;;;;5014792;28;20198;-86